Time,TemperatureF,DewpointF,PressureIn,WindDirection,WindDirectionDegrees,WindSpeedMPH,WindSpeedGustMPH,Humidity,HourlyPrecipIn,Conditions,Clouds,dailyrainin,SoftwareType,DateUTC
2013-09-29 00:03:00,54.0,34.0,30.07,North,352,0.0,1.0,48,0.00,,,0.00,weatherlink.com 1.10,2013-09-29 06:03:00,
2013-09-29 00:18:00,54.4,33.0,30.07,North,352,0.0,0.0,44,0.00,,,0.00,weatherlink.com 1.10,2013-09-29 06:18:00,
2013-09-29 00:33:00,55.0,35.0,30.07,North,352,0.0,0.0,47,0.00,,,0.00,weatherlink.com 1.10,2013-09-29 06:33:00,
2013-09-29 00:48:00,52.7,30.0,30.07,North,352,0.0,0.0,42,0.00,,,0.00,weatherlink.com 1.10,2013-09-29 06:48:00,
2013-09-29 01:04:00,51.8,32.0,30.07,North,352,0.0,0.0,48,0.00,,,0.00,weatherlink.com 1.10,2013-09-29 07:04:00,
2013-09-29 01:19:00,52.0,30.0,30.08,North,352,0.0,0.0,43,0.00,,,0.00,weatherlink.com 1.10,2013-09-29 07:19:00,
2013-09-29 01:34:00,52.3,33.0,30.07,North,353,0.0,0.0,49,0.00,,,0.00,weatherlink.com 1.10,2013-09-29 07:34:00,
2013-09-29 01:49:00,53.3,35.0,30.07,North,353,0.0,0.0,51,0.00,,,0.00,weatherlink.com 1.10,2013-09-29 07:49:00,
2013-09-29 02:04:00,51.6,31.0,30.07,North,352,0.0,0.0,46,0.00,,,0.00,weatherlink.com 1.10,2013-09-29 08:04:00,
2013-09-29 02:19:00,52.0,35.0,30.07,North,353,0.0,0.0,53,0.00,,,0.00,weatherlink.com 1.10,2013-09-29 08:19:00,
2013-09-29 02:34:00,54.6,37.0,30.07,North,353,0.0,0.0,51,0.00,,,0.00,weatherlink.com 1.10,2013-09-29 08:34:00,
2013-09-29 02:49:00,50.9,35.0,30.07,North,352,0.0,0.0,54,0.00,,,0.00,weatherlink.com 1.10,2013-09-29 08:49:00,
2013-09-29 03:04:00,49.9,32.0,30.07,North,352,0.0,0.0,50,0.00,,,0.00,weatherlink.com 1.10,2013-09-29 09:04:00,
2013-09-29 03:19:00,45.4,32.0,30.07,North,352,0.0,0.0,60,0.00,,,0.00,weatherlink.com 1.10,2013-09-29 09:19:00,
2013-09-29 03:34:00,44.3,33.0,30.07,North,353,0.0,0.0,64,0.00,,,0.00,weatherlink.com 1.10,2013-09-29 09:34:00,
2013-09-29 03:49:00,45.9,36.0,30.06,North,352,0.0,0.0,69,0.00,,,0.00,weatherlink.com 1.10,2013-09-29 09:49:00,
2013-09-29 04:04:00,47.1,36.0,30.07,North,352,0.0,0.0,66,0.00,,,0.00,weatherlink.com 1.10,2013-09-29 10:04:00,
2013-09-29 04:19:00,49.8,37.0,30.06,North,353,0.0,0.0,61,0.00,,,0.00,weatherlink.com 1.10,2013-09-29 10:19:00,
2013-09-29 04:34:00,51.0,36.0,30.06,North,352,0.0,0.0,56,0.00,,,0.00,weatherlink.com 1.10,2013-09-29 10:34:00,
2013-09-29 04:49:00,46.6,32.0,30.06,North,352,0.0,0.0,58,0.00,,,0.00,weatherlink.com 1.10,2013-09-29 10:49:00,
2013-09-29 05:04:00,45.8,33.0,30.07,North,353,0.0,0.0,62,0.00,,,0.00,weatherlink.com 1.10,2013-09-29 11:04:00,
2013-09-29 05:19:00,42.6,33.0,30.07,North,352,0.0,0.0,69,0.00,,,0.00,weatherlink.com 1.10,2013-09-29 11:19:00,
2013-09-29 05:34:00,43.9,33.0,30.07,North,352,0.0,0.0,65,0.00,,,0.00,weatherlink.com 1.10,2013-09-29 11:34:00,
2013-09-29 05:49:00,45.2,36.0,30.07,North,352,0.0,0.0,70,0.00,,,0.00,weatherlink.com 1.10,2013-09-29 11:49:00,
2013-09-29 06:04:00,46.7,35.0,30.07,North,352,0.0,0.0,63,0.00,,,0.00,weatherlink.com 1.10,2013-09-29 12:04:00,
2013-09-29 06:19:00,47.1,35.0,30.07,North,353,0.0,0.0,62,0.00,,,0.00,weatherlink.com 1.10,2013-09-29 12:19:00,
2013-09-29 06:34:00,45.9,35.0,30.07,North,353,0.0,0.0,66,0.00,,,0.00,weatherlink.com 1.10,2013-09-29 12:34:00,
2013-09-29 06:49:00,46.2,35.0,30.08,North,353,0.0,0.0,64,0.00,,,0.00,weatherlink.com 1.10,2013-09-29 12:49:00,
2013-09-29 07:04:00,43.6,34.0,30.08,North,353,0.0,0.0,69,0.00,,,0.00,weatherlink.com 1.10,2013-09-29 13:04:00,
2013-09-29 07:19:00,42.2,33.0,30.08,North,352,0.0,0.0,70,0.00,,,0.00,weatherlink.com 1.10,2013-09-29 13:19:00,
2013-09-29 07:34:00,40.9,31.0,30.09,North,352,0.0,0.0,67,0.00,,,0.00,weatherlink.com 1.10,2013-09-29 13:34:00,
2013-09-29 07:49:00,41.2,30.0,30.09,North,353,0.0,1.0,65,0.00,,,0.00,weatherlink.com 1.10,2013-09-29 13:49:00,
2013-09-29 08:04:00,42.7,31.0,30.10,North,351,0.0,1.0,63,0.00,,,0.00,weatherlink.com 1.10,2013-09-29 14:04:00,
2013-09-29 08:19:00,44.5,30.0,30.10,NNW,346,0.0,2.0,58,0.00,,,0.00,weatherlink.com 1.10,2013-09-29 14:19:00,
2013-09-29 08:34:00,47.4,31.0,30.11,North,349,0.0,1.0,54,0.00,,,0.00,weatherlink.com 1.10,2013-09-29 14:34:00,
2013-09-29 08:49:00,49.9,31.0,30.11,NNW,329,0.0,2.0,49,0.00,,,0.00,weatherlink.com 1.10,2013-09-29 14:49:00,
2013-09-29 09:04:00,51.1,31.0,30.11,NNW,345,2.0,3.0,46,0.00,,,0.00,weatherlink.com 1.10,2013-09-29 15:04:00,
2013-09-29 09:19:00,53.5,31.0,30.11,West,274,1.0,3.0,42,0.00,,,0.00,weatherlink.com 1.10,2013-09-29 15:19:00,
2013-09-29 09:34:00,54.1,29.0,30.11,NNW,328,0.0,4.0,39,0.00,,,0.00,weatherlink.com 1.10,2013-09-29 15:34:00,
2013-09-29 09:49:00,56.1,31.0,30.10,North,3,2.0,3.0,38,0.00,,,0.00,weatherlink.com 1.10,2013-09-29 15:49:00,
2013-09-29 10:04:00,57.8,31.0,30.10,WSW,258,0.0,2.0,37,0.00,,,0.00,weatherlink.com 1.10,2013-09-29 16:04:00,
2013-09-29 10:20:00,59.4,32.0,30.10,North,6,2.0,2.0,35,0.00,,,0.00,weatherlink.com 1.10,2013-09-29 16:20:00,
2013-09-29 10:35:00,60.0,30.0,30.10,SW,236,1.0,4.0,32,0.00,,,0.00,weatherlink.com 1.10,2013-09-29 16:35:00,
2013-09-29 10:50:00,61.7,30.0,30.09,NW,319,0.0,3.0,30,0.00,,,0.00,weatherlink.com 1.10,2013-09-29 16:50:00,
2013-09-29 11:05:00,64.3,29.0,30.08,SSW,203,0.0,3.0,27,0.00,,,0.00,weatherlink.com 1.10,2013-09-29 17:05:00,
2013-09-29 11:20:00,65.9,29.0,30.07,SE,124,1.0,4.0,25,0.00,,,0.00,weatherlink.com 1.10,2013-09-29 17:20:00,
2013-09-29 11:35:00,67.3,29.0,30.07,ESE,113,4.0,4.0,24,0.00,,,0.00,weatherlink.com 1.10,2013-09-29 17:35:00,
2013-09-29 11:50:00,67.1,28.0,30.06,WSW,254,0.0,5.0,23,0.00,,,0.00,weatherlink.com 1.10,2013-09-29 17:50:00,
2013-09-29 12:05:00,69.2,29.0,30.05,WSW,243,3.0,4.0,22,0.00,,,0.00,weatherlink.com 1.10,2013-09-29 18:05:00,
2013-09-29 12:20:00,71.0,28.0,30.04,West,278,0.0,2.0,20,0.00,,,0.00,weatherlink.com 1.10,2013-09-29 18:20:00,
2013-09-29 12:35:00,71.6,27.0,30.03,SW,232,1.0,4.0,19,0.00,,,0.00,weatherlink.com 1.10,2013-09-29 18:35:00,
2013-09-29 12:50:00,72.9,27.0,30.02,SSE,152,2.0,2.0,18,0.00,,,0.00,weatherlink.com 1.10,2013-09-29 18:50:00,
2013-09-29 13:05:00,73.8,26.0,30.01,WSW,257,1.0,3.0,17,0.00,,,0.00,weatherlink.com 1.10,2013-09-29 19:05:00,
2013-09-29 13:20:00,74.1,26.0,30.00,SE,142,1.0,5.0,17,0.00,,,0.00,weatherlink.com 1.10,2013-09-29 19:20:00,
2013-09-29 13:35:00,75.1,26.0,29.99,South,180,1.0,4.0,16,0.00,,,0.00,weatherlink.com 1.10,2013-09-29 19:35:00,
2013-09-29 13:50:00,73.3,27.0,29.98,SE,127,0.0,5.0,18,0.00,,,0.00,weatherlink.com 1.10,2013-09-29 19:50:00,
2013-09-29 14:05:00,74.4,25.0,29.97,SE,127,1.0,4.0,16,0.00,,,0.00,weatherlink.com 1.10,2013-09-29 20:05:00,
2013-09-29 14:20:00,74.9,30.0,29.95,SW,219,0.0,5.0,19,0.00,,,0.00,weatherlink.com 1.10,2013-09-29 20:20:00,
2013-09-29 14:35:00,75.8,28.0,29.94,WNW,287,1.0,5.0,17,0.00,,,0.00,weatherlink.com 1.10,2013-09-29 20:35:00,
2013-09-29 14:50:00,76.6,29.0,29.93,SW,219,1.0,5.0,17,0.00,,,0.00,weatherlink.com 1.10,2013-09-29 20:50:00,
2013-09-29 15:05:00,77.7,26.0,29.92,South,172,1.0,4.0,15,0.00,,,0.00,weatherlink.com 1.10,2013-09-29 21:05:00,
2013-09-29 15:21:00,77.9,27.0,29.91,South,191,2.0,7.0,15,0.00,,,0.00,weatherlink.com 1.10,2013-09-29 21:21:00,
2013-09-29 15:36:00,78.0,30.0,29.91,WSW,243,2.0,6.0,17,0.00,,,0.00,weatherlink.com 1.10,2013-09-29 21:36:00,
2013-09-29 15:51:00,78.6,22.0,29.90,SW,235,2.0,6.0,12,0.00,,,0.00,weatherlink.com 1.10,2013-09-29 21:51:00,
2013-09-29 16:06:00,78.4,25.0,29.89,WNW,288,1.0,8.0,14,0.00,,,0.00,weatherlink.com 1.10,2013-09-29 22:06:00,
2013-09-29 16:21:00,79.0,24.0,29.89,WNW,302,1.0,4.0,13,0.00,,,0.00,weatherlink.com 1.10,2013-09-29 22:21:00,
2013-09-29 16:36:00,79.7,26.0,29.89,WSW,249,1.0,6.0,14,0.00,,,0.00,weatherlink.com 1.10,2013-09-29 22:36:00,
2013-09-29 16:51:00,79.3,24.0,29.89,WNW,302,2.0,5.0,13,0.00,,,0.00,weatherlink.com 1.10,2013-09-29 22:51:00,
2013-09-29 17:06:00,79.9,25.0,29.88,NW,314,2.0,3.0,13,0.00,,,0.00,weatherlink.com 1.10,2013-09-29 23:06:00,
2013-09-29 17:21:00,78.6,27.0,29.88,ENE,69,0.0,1.0,15,0.00,,,0.00,weatherlink.com 1.10,2013-09-29 23:21:00,
2013-09-29 17:36:00,78.0,25.0,29.87,WNW,297,1.0,3.0,14,0.00,,,0.00,weatherlink.com 1.10,2013-09-29 23:36:00,
2013-09-29 17:51:00,76.4,27.0,29.86,NNW,330,0.0,3.0,16,0.00,,,0.00,weatherlink.com 1.10,2013-09-29 23:51:00,
2013-09-29 18:06:00,75.3,26.0,29.86,NW,316,1.0,3.0,16,0.00,,,0.00,weatherlink.com 1.10,2013-09-30 00:06:00,
2013-09-29 18:21:00,74.2,25.0,29.86,NE,52,1.0,4.0,16,0.00,,,0.00,weatherlink.com 1.10,2013-09-30 00:21:00,
2013-09-29 18:36:00,73.2,27.0,29.85,North,356,0.0,1.0,18,0.00,,,0.00,weatherlink.com 1.10,2013-09-30 00:36:00,
2013-09-29 18:51:00,71.7,28.0,29.85,North,354,0.0,1.0,20,0.00,,,0.00,weatherlink.com 1.10,2013-09-30 00:51:00,
2013-09-29 19:06:00,70.1,25.0,29.85,North,1,0.0,1.0,18,0.00,,,0.00,weatherlink.com 1.10,2013-09-30 01:06:00,
2013-09-29 19:21:00,69.1,22.0,29.86,West,268,1.0,3.0,17,0.00,,,0.00,weatherlink.com 1.10,2013-09-30 01:21:00,
2013-09-29 19:36:00,68.6,27.0,29.86,North,355,0.0,1.0,21,0.00,,,0.00,weatherlink.com 1.10,2013-09-30 01:36:00,
2013-09-29 19:51:00,68.4,29.0,29.87,North,355,0.0,0.0,23,0.00,,,0.00,weatherlink.com 1.10,2013-09-30 01:51:00,
2013-09-29 20:06:00,67.3,31.0,29.88,North,355,0.0,1.0,26,0.00,,,0.00,weatherlink.com 1.10,2013-09-30 02:06:00,
2013-09-29 20:21:00,66.2,28.0,29.88,NNE,16,0.0,1.0,24,0.00,,,0.00,weatherlink.com 1.10,2013-09-30 02:21:00,
2013-09-29 20:36:00,64.8,28.0,29.89,NNE,16,0.0,1.0,25,0.00,,,0.00,weatherlink.com 1.10,2013-09-30 02:36:00,
2013-09-29 20:51:00,63.6,29.0,29.89,NNE,16,0.0,1.0,27,0.00,,,0.00,weatherlink.com 1.10,2013-09-30 02:51:00,
2013-09-29 21:06:00,62.0,32.0,29.90,NNE,16,0.0,0.0,33,0.00,,,0.00,weatherlink.com 1.10,2013-09-30 03:06:00,
2013-09-29 21:21:00,60.6,29.0,29.90,NNE,16,0.0,0.0,30,0.00,,,0.00,weatherlink.com 1.10,2013-09-30 03:21:00,
2013-09-29 21:36:00,62.4,36.0,29.90,NNE,16,0.0,0.0,37,0.00,,,0.00,weatherlink.com 1.10,2013-09-30 03:36:00,
2013-09-29 21:51:00,62.4,30.0,29.91,NNE,16,0.0,0.0,30,0.00,,,0.00,weatherlink.com 1.10,2013-09-30 03:51:00,
2013-09-29 22:06:00,61.1,30.0,29.91,NNE,16,0.0,0.0,31,0.00,,,0.00,weatherlink.com 1.10,2013-09-30 04:06:00,
2013-09-29 22:21:00,61.7,30.0,29.90,NNE,16,0.0,1.0,30,0.00,,,0.00,weatherlink.com 1.10,2013-09-30 04:21:00,
2013-09-29 22:36:00,59.7,33.0,29.91,West,278,0.0,2.0,36,0.00,,,0.00,weatherlink.com 1.10,2013-09-30 04:36:00,
2013-09-29 22:51:00,58.8,37.0,29.91,West,276,0.0,1.0,45,0.00,,,0.00,weatherlink.com 1.10,2013-09-30 04:51:00,
2013-09-29 23:06:00,59.7,37.0,29.90,ESE,116,0.0,1.0,43,0.00,,,0.00,weatherlink.com 1.10,2013-09-30 05:06:00,
2013-09-29 23:21:00,59.3,34.0,29.90,ESE,116,0.0,0.0,39,0.00,,,0.00,weatherlink.com 1.10,2013-09-30 05:21:00,
2013-09-29 23:36:00,58.3,34.0,29.90,ESE,116,0.0,0.0,40,0.00,,,0.00,weatherlink.com 1.10,2013-09-30 05:36:00,
2013-09-29 23:51:00,57.6,33.0,29.90,ESE,115,0.0,1.0,39,0.00,,,0.00,weatherlink.com 1.10,2013-09-30 05:51:00,